Time;durP1;ratioP1;P1;durP2;ratioP2;P2;SDS_P1;SDS_P2;PMS_P1;PMS_P2;Temp;Humidity;BMP_temperature;BMP_pressure;BME280_temperature;BME280_humidity;BME280_pressure;Samples;Min_cycle;Max_cycle;Signal;HPM_P1;HPM_P2
2022/07/30 00:00:43;;;;;;;8.05;3.88;;;14.60;99.90;;;;;;5018586;28;20450;-71
2022/07/30 00:03:09;;;;;;;9.02;4.20;;;14.60;99.90;;;;;;5026994;28;20055;-72
2022/07/30 00:05:34;;;;;;;14.05;4.85;;;14.60;99.90;;;;;;5045038;28;20048;-72
2022/07/30 00:08:00;;;;;;;10.07;4.53;;;14.50;99.90;;;;;;5042762;28;20506;-72
2022/07/30 00:10:29;;;;;;;10.32;4.38;;;14.50;99.90;;;;;;5042561;28;20132;-72
2022/07/30 00:12:55;;;;;;;9.55;4.75;;;14.50;99.90;;;;;;5026519;28;20044;-72
2022/07/30 00:15:22;;;;;;;10.23;5.15;;;14.40;99.90;;;;;;5025343;28;20124;-72
2022/07/30 00:17:48;;;;;;;10.77;5.05;;;14.50;99.90;;;;;;5041379;28;20052;-71
2022/07/30 00:20:13;;;;;;;9.90;4.95;;;14.40;99.90;;;;;;5045553;28;20095;-72
2022/07/30 00:22:39;;;;;;;10.15;5.00;;;14.40;99.90;;;;;;5037399;28;20040;-72
2022/07/30 00:25:05;;;;;;;10.10;5.20;;;14.40;99.90;;;;;;5043742;28;20064;-72
2022/07/30 00:27:33;;;;;;;8.52;5.28;;;14.40;99.90;;;;;;5037810;28;20033;-72
2022/07/30 00:30:00;;;;;;;11.32;5.53;;;14.30;99.90;;;;;;5038330;28;20080;-72
2022/07/30 00:32:26;;;;;;;9.38;5.13;;;14.30;99.90;;;;;;5027056;28;20099;-72
2022/07/30 00:34:52;;;;;;;9.80;4.93;;;14.30;99.90;;;;;;5043785;28;20149;-72
2022/07/30 00:37:17;;;;;;;7.75;4.75;;;14.30;99.90;;;;;;5041979;28;20132;-73
2022/07/30 00:39:43;;;;;;;9.25;5.30;;;14.30;99.90;;;;;;5040653;28;20123;-72
2022/07/30 00:42:09;;;;;;;9.98;5.10;;;14.20;99.90;;;;;;5043490;28;20070;-72
2022/07/30 00:44:34;;;;;;;9.27;4.85;;;14.20;99.90;;;;;;5041619;28;20482;-72
2022/07/30 00:47:00;;;;;;;9.75;4.65;;;14.10;99.90;;;;;;5058550;28;20053;-71
2022/07/30 00:49:29;;;;;;;10.68;5.15;;;14.00;99.90;;;;;;5026148;28;20067;-72
2022/07/30 00:51:54;;;;;;;8.70;4.85;;;14.00;99.90;;;;;;5038406;28;20053;-72
2022/07/30 00:54:20;;;;;;;10.65;5.45;;;14.00;99.90;;;;;;5043196;28;20052;-72
2022/07/30 00:56:47;;;;;;;10.10;5.55;;;13.90;99.90;;;;;;5042492;28;20076;-72
2022/07/30 00:59:13;;;;;;;11.55;6.20;;;13.90;99.90;;;;;;5053895;28;20040;-72
2022/07/30 01:01:39;;;;;;;10.63;5.25;;;13.90;99.90;;;;;;5040652;28;20382;-71
2022/07/30 01:04:10;;;;;;;8.85;5.28;;;13.90;99.90;;;;;;5040129;28;20064;-72
2022/07/30 01:06:39;;;;;;;12.45;5.43;;;13.90;99.90;;;;;;5024628;28;20055;-72
2022/07/30 01:09:06;;;;;;;11.43;5.03;;;13.70;99.90;;;;;;5025322;28;20049;-72
2022/07/30 01:11:36;;;;;;;8.60;5.10;;;13.70;99.90;;;;;;5042415;28;20051;-72
2022/07/30 01:14:03;;;;;;;9.67;5.20;;;13.70;99.90;;;;;;5023234;28;20465;-72
2022/07/30 01:16:29;;;;;;;8.73;5.00;;;13.80;99.90;;;;;;5039592;28;20047;-73
2022/07/30 01:21:47;;;;;;;12.20;5.55;;;13.60;99.90;;;;;;5043783;28;20385;-73
2022/07/30 01:24:51;;;;;;;10.68;4.85;;;13.50;99.90;;;;;;5024407;28;20049;-73
2022/07/30 01:27:18;;;;;;;11.20;4.70;;;13.50;99.90;;;;;;5028351;28;20800;-72
2022/07/30 01:29:45;;;;;;;8.80;5.10;;;13.50;99.90;;;;;;5026923;28;20091;-72
2022/07/30 01:32:13;;;;;;;8.30;5.15;;;13.50;99.90;;;;;;5041729;28;20095;-72
2022/07/30 01:34:41;;;;;;;12.02;5.95;;;13.40;99.90;;;;;;5025774;28;20166;-72
2022/07/30 01:37:09;;;;;;;8.63;5.63;;;13.40;99.90;;;;;;5041855;28;20045;-72
2022/07/30 01:39:36;;;;;;;9.63;5.80;;;13.40;99.90;;;;;;5043361;28;20402;-72
2022/07/30 01:42:06;;;;;;;13.77;5.47;;;13.30;99.90;;;;;;5041031;28;20052;-72
2022/07/30 01:44:32;;;;;;;9.00;4.82;;;13.30;99.90;;;;;;5043407;28;20037;-72
2022/07/30 01:47:00;;;;;;;8.13;5.53;;;13.30;99.90;;;;;;5044726;28;20434;-72
2022/07/30 01:49:30;;;;;;;13.57;5.32;;;13.30;99.90;;;;;;5044646;28;20048;-72
2022/07/30 01:51:58;;;;;;;9.23;5.80;;;13.30;99.90;;;;;;5040249;28;20222;-73
2022/07/30 01:54:26;;;;;;;11.23;5.53;;;13.30;99.90;;;;;;5042393;28;20052;-72
2022/07/30 01:56:55;;;;;;;9.85;5.60;;;13.30;99.90;;;;;;5042747;28;20045;-72
2022/07/30 01:59:23;;;;;;;9.77;5.45;;;13.20;99.90;;;;;;5042958;28;20156;-71
2022/07/30 02:01:52;;;;;;;8.68;5.80;;;13.20;99.90;;;;;;5042199;28;20049;-72
2022/07/30 02:04:21;;;;;;;10.75;6.00;;;13.30;99.90;;;;;;5047074;28;20449;-72
2022/07/30 02:07:07;;;;;;;10.05;5.88;;;13.20;99.90;;;;;;5057641;28;20060;-69
2022/07/30 02:09:40;;;;;;;10.07;6.10;;;13.10;99.90;;;;;;5040256;28;20067;-70
2022/07/30 02:12:28;;;;;;;9.98;6.13;;;13.10;99.90;;;;;;5054432;28;20175;-70
2022/07/30 02:15:23;;;;;;;11.00;5.90;;;13.10;99.90;;;;;;5033548;28;20044;-72
2022/07/30 02:17:59;;;;;;;11.65;5.82;;;13.10;99.90;;;;;;5046457;28;20085;-72
2022/07/30 02:20:28;;;;;;;9.48;6.40;;;13.10;99.90;;;;;;5046461;28;20124;-72
2022/07/30 02:23:01;;;;;;;10.23;6.15;;;13.00;99.90;;;;;;5029628;28;20056;-72
2022/07/30 02:25:30;;;;;;;8.63;6.18;;;13.00;99.90;;;;;;5045399;28;20057;-72
2022/07/30 02:28:01;;;;;;;12.80;6.90;;;13.00;99.90;;;;;;5045041;28;20072;-72
2022/07/30 02:30:30;;;;;;;11.20;6.80;;;13.00;99.90;;;;;;5029815;28;20102;-73
2022/07/30 02:33:09;;;;;;;11.77;7.28;;;13.00;99.90;;;;;;5045957;28;20052;-72
2022/07/30 02:35:36;;;;;;;10.20;6.82;;;13.00;99.90;;;;;;5027894;28;20621;-72
2022/07/30 02:38:04;;;;;;;11.80;7.00;;;12.90;99.90;;;;;;5045137;28;20060;-71
2022/07/30 02:40:30;;;;;;;11.52;7.30;;;12.90;99.90;;;;;;5028462;28;20041;-72
2022/07/30 02:42:58;;;;;;;11.00;7.25;;;12.90;99.90;;;;;;5044102;28;20122;-72
2022/07/30 02:45:24;;;;;;;12.75;7.18;;;12.90;99.90;;;;;;5045290;28;20497;-72
2022/07/30 02:47:53;;;;;;;12.00;7.25;;;12.80;99.90;;;;;;5047104;28;20045;-73
2022/07/30 02:50:21;;;;;;;12.40;7.85;;;12.90;99.90;;;;;;5027765;28;20118;-72
2022/07/30 02:52:49;;;;;;;13.07;8.57;;;12.80;99.90;;;;;;5045962;28;20056;-72
2022/07/30 02:55:16;;;;;;;12.68;8.23;;;13.00;99.90;;;;;;5045144;28;20037;-72
2022/07/30 02:57:44;;;;;;;13.77;8.90;;;12.80;99.90;;;;;;5043485;28;20123;-72
2022/07/30 03:00:11;;;;;;;14.88;8.35;;;12.80;99.90;;;;;;5027194;28;20397;-72
2022/07/30 03:02:39;;;;;;;13.82;8.57;;;12.80;99.90;;;;;;5042248;28;20052;-72
2022/07/30 03:05:06;;;;;;;13.43;8.40;;;12.80;99.90;;;;;;5038061;28;20116;-72
2022/07/30 03:07:34;;;;;;;11.68;8.32;;;12.80;99.90;;;;;;5038747;28;20084;-72
2022/07/30 03:10:01;;;;;;;13.40;8.57;;;12.80;99.90;;;;;;5022218;28;20080;-72
2022/07/30 03:12:30;;;;;;;13.68;9.00;;;12.80;99.90;;;;;;5042310;28;20456;-73
2022/07/30 03:14:56;;;;;;;13.23;8.77;;;12.80;99.90;;;;;;5044508;28;20106;-72
2022/07/30 03:17:26;;;;;;;15.38;9.43;;;12.80;99.90;;;;;;5044020;28;20041;-72
2022/07/30 03:19:54;;;;;;;16.15;9.20;;;12.80;99.90;;;;;;5044028;28;20123;-72
2022/07/30 03:22:24;;;;;;;14.70;10.15;;;12.70;99.90;;;;;;5040478;28;20041;-72
2022/07/30 03:24:51;;;;;;;14.25;9.52;;;12.80;99.90;;;;;;5040608;28;20116;-71
2022/07/30 03:27:17;;;;;;;14.65;9.38;;;12.70;99.90;;;;;;5043604;28;20061;-73
2022/07/30 03:29:45;;;;;;;13.23;9.65;;;12.70;99.90;;;;;;5042291;28;20063;-72
2022/07/30 03:32:11;;;;;;;15.27;10.50;;;12.70;99.90;;;;;;5042454;28;20402;-72
2022/07/30 03:34:37;;;;;;;16.63;10.70;;;12.70;99.90;;;;;;5023316;28;20043;-71
2022/07/30 03:37:04;;;;;;;16.58;10.23;;;12.70;99.90;;;;;;5042780;28;20417;-72
2022/07/30 03:39:33;;;;;;;12.82;9.50;;;12.70;99.90;;;;;;5040722;28;20037;-71
2022/07/30 03:41:59;;;;;;;13.40;9.23;;;12.70;99.90;;;;;;5024985;28;20045;-72
2022/07/30 03:44:30;;;;;;;15.70;9.57;;;12.70;99.90;;;;;;5043756;28;20029;-72
2022/07/30 03:46:57;;;;;;;15.18;10.75;;;12.70;99.90;;;;;;5040596;28;20088;-72
2022/07/30 03:49:24;;;;;;;13.70;9.98;;;12.70;99.90;;;;;;5050652;28;20037;-73
2022/07/30 03:51:52;;;;;;;15.57;9.98;;;12.70;99.90;;;;;;5025636;28;20084;-73
2022/07/30 03:54:21;;;;;;;13.80;10.07;;;12.70;99.90;;;;;;5043034;28;21634;-75
2022/07/30 03:56:47;;;;;;;15.68;9.80;;;12.70;99.90;;;;;;5025328;28;20508;-72
2022/07/30 03:59:15;;;;;;;14.95;10.38;;;12.70;99.90;;;;;;5040715;28;20041;-71
2022/07/30 04:01:40;;;;;;;13.55;10.05;;;12.60;99.90;;;;;;5042121;28;20045;-72
2022/07/30 04:04:07;;;;;;;15.95;10.57;;;12.70;99.90;;;;;;5041380;28;20060;-72
2022/07/30 04:06:38;;;;;;;13.82;10.00;;;12.70;99.90;;;;;;5042011;28;20406;-72
2022/07/30 04:09:08;;;;;;;13.77;9.70;;;12.70;99.90;;;;;;5039887;28;20049;-72
2022/07/30 04:11:34;;;;;;;13.52;9.75;;;12.70;99.90;;;;;;5042039;28;20059;-72
2022/07/30 04:14:00;;;;;;;14.40;10.07;;;12.70;99.90;;;;;;5041572;28;20160;-71
2022/07/30 04:16:39;;;;;;;17.48;11.00;;;12.70;99.90;;;;;;5041685;28;20464;-72
2022/07/30 04:19:11;;;;;;;16.67;10.88;;;12.70;99.90;;;;;;5041516;28;20045;-72
2022/07/30 04:21:40;;;;;;;15.18;10.65;;;12.70;99.90;;;;;;5054283;28;20052;-72
2022/07/30 04:24:07;;;;;;;17.50;11.02;;;12.70;99.90;;;;;;5041738;28;20052;-72
2022/07/30 04:26:35;;;;;;;16.02;10.45;;;12.70;99.90;;;;;;5040443;28;20037;-72
2022/07/30 04:29:04;;;;;;;18.30;9.80;;;12.70;99.90;;;;;;5032668;28;20052;-72
2022/07/30 04:31:34;;;;;;;16.15;10.52;;;12.80;99.90;;;;;;5035545;28;20045;-72
2022/07/30 04:34:04;;;;;;;14.98;10.23;;;12.90;99.90;;;;;;5014842;28;20768;-72
2022/07/30 04:36:32;;;;;;;15.25;11.32;;;12.90;99.90;;;;;;5037384;28;20334;-72
2022/07/30 04:38:58;;;;;;;14.07;10.55;;;12.90;99.90;;;;;;5037764;28;20033;-72
2022/07/30 04:41:26;;;;;;;17.13;11.63;;;13.00;99.90;;;;;;5022934;28;20049;-72
2022/07/30 04:43:52;;;;;;;18.10;11.35;;;13.30;99.90;;;;;;5038834;28;20513;-72
2022/07/30 04:46:18;;;;;;;14.70;10.95;;;13.80;99.90;;;;;;5039656;28;20048;-72
2022/07/30 04:48:44;;;;;;;11.80;9.07;;;14.60;99.90;;;;;;5055111;28;20036;-71
2022/07/30 04:51:21;;;;;;;15.23;8.90;;;15.40;99.90;;;;;;5019185;28;20049;-72
2022/07/30 04:53:49;;;;;;;14.27;9.30;;;16.10;99.90;;;;;;5041491;28;20085;-72
2022/07/30 04:56:16;;;;;;;15.25;8.90;;;16.90;99.90;;;;;;5040269;28;20060;-72
2022/07/30 04:58:44;;;;;;;14.63;9.02;;;17.50;99.90;;;;;;5042640;28;20083;-73
2022/07/30 05:01:11;;;;;;;12.45;8.40;;;18.10;99.90;;;;;;5024999;28;20094;-79
2022/07/30 05:03:38;;;;;;;11.10;7.80;;;18.80;99.90;;;;;;5036053;28;20485;-73
2022/07/30 05:06:05;;;;;;;13.25;8.05;;;19.30;99.90;;;;;;5042432;28;20058;-72
2022/07/30 05:08:31;;;;;;;10.63;7.55;;;19.80;99.90;;;;;;5039650;28;20052;-72
2022/07/30 05:10:57;;;;;;;14.18;7.47;;;20.30;99.90;;;;;;5036003;28;20433;-73
2022/07/30 05:13:22;;;;;;;13.80;7.03;;;20.70;99.90;;;;;;5039851;28;20125;-77
2022/07/30 05:15:51;;;;;;;13.95;7.57;;;21.10;99.90;;;;;;5038431;28;20049;-72
2022/07/30 05:18:16;;;;;;;10.30;6.72;;;21.50;99.90;;;;;;5037034;28;20041;-72
2022/07/30 05:20:42;;;;;;;11.15;6.65;;;22.00;99.90;;;;;;5036762;28;20051;-72
2022/07/30 05:23:08;;;;;;;10.68;6.72;;;22.50;99.90;;;;;;5038124;28;20764;-72
2022/07/30 05:25:34;;;;;;;9.25;6.32;;;22.90;99.90;;;;;;5022663;28;20538;-72
2022/07/30 05:27:59;;;;;;;10.63;6.03;;;23.10;99.90;;;;;;5036509;28;20167;-72
2022/07/30 05:30:28;;;;;;;10.15;6.25;;;22.80;99.90;;;;;;5037869;28;20370;-72
2022/07/30 05:32:54;;;;;;;10.38;6.05;;;21.90;99.90;;;;;;5038491;28;20087;-72
2022/07/30 05:35:19;;;;;;;10.52;6.03;;;21.10;99.90;;;;;;5038157;28;20387;-72
2022/07/30 05:37:45;;;;;;;10.00;6.30;;;20.30;99.90;;;;;;5039077;28;20290;-72
2022/07/30 05:40:11;;;;;;;8.93;5.68;;;19.80;99.90;;;;;;5041748;28;20033;-72
2022/07/30 05:42:37;;;;;;;10.85;6.10;;;19.20;99.90;;;;;;5040077;28;20102;-71
2022/07/30 05:45:03;;;;;;;9.10;6.43;;;18.80;99.90;;;;;;5025873;28;20037;-73
2022/07/30 05:47:28;;;;;;;9.82;6.90;;;18.60;99.90;;;;;;5023762;28;20179;-73
2022/07/30 05:49:54;;;;;;;9.05;6.57;;;18.30;99.90;;;;;;5036882;28;20052;-71
2022/07/30 05:52:20;;;;;;;10.48;6.18;;;18.10;99.90;;;;;;5035824;28;20506;-72
2022/07/30 05:54:45;;;;;;;10.60;6.93;;;17.90;99.90;;;;;;5023148;28;20316;-72
2022/07/30 05:57:11;;;;;;;11.38;7.03;;;17.70;99.90;;;;;;5022317;28;20045;-72
2022/07/30 05:59:37;;;;;;;11.50;6.97;;;17.50;99.90;;;;;;5025123;28;20848;-71
2022/07/30 06:02:05;;;;;;;11.60;6.72;;;17.50;99.90;;;;;;5036387;28;20674;-72
2022/07/30 06:04:30;;;;;;;13.27;7.07;;;17.80;99.90;;;;;;5041368;28;20403;-72
2022/07/30 06:06:56;;;;;;;12.60;7.28;;;17.80;99.90;;;;;;5043373;28;20055;-73
2022/07/30 06:09:22;;;;;;;14.27;8.38;;;17.80;99.90;;;;;;5042827;28;20045;-72
2022/07/30 06:11:47;;;;;;;13.65;8.07;;;17.80;99.90;;;;;;5044739;28;20041;-73
2022/07/30 06:14:13;;;;;;;12.65;7.80;;;17.80;99.90;;;;;;5044456;28;20332;-72
2022/07/30 06:16:39;;;;;;;13.75;7.03;;;17.80;99.90;;;;;;5042806;28;20417;-72
2022/07/30 06:19:04;;;;;;;13.13;7.50;;;17.90;99.90;;;;;;5027031;28;20041;-73
2022/07/30 06:21:30;;;;;;;11.00;6.88;;;18.00;99.90;;;;;;5043342;28;20048;-72
2022/07/30 06:23:56;;;;;;;13.45;6.57;;;17.90;99.90;;;;;;5044060;28;20084;-72
2022/07/30 06:26:21;;;;;;;13.55;7.63;;;17.90;99.90;;;;;;5044254;28;20043;-72
2022/07/30 06:28:47;;;;;;;15.88;7.45;;;17.80;99.90;;;;;;5044810;28;20414;-72
2022/07/30 06:31:13;;;;;;;13.85;7.10;;;17.80;99.90;;;;;;5047098;28;20048;-72
2022/07/30 06:33:39;;;;;;;16.33;7.20;;;18.10;99.90;;;;;;5042228;28;20052;-73
2022/07/30 06:36:05;;;;;;;12.95;7.65;;;17.90;99.90;;;;;;5041808;28;20045;-73
2022/07/30 06:38:31;;;;;;;11.68;7.18;;;17.90;99.90;;;;;;5043450;28;20091;-73
2022/07/30 06:40:56;;;;;;;11.88;8.02;;;17.90;99.90;;;;;;5039692;28;20052;-72
2022/07/30 06:43:22;;;;;;;11.48;7.22;;;18.20;99.90;;;;;;5026001;28;20056;-72
2022/07/30 06:45:51;;;;;;;14.20;6.72;;;18.30;99.90;;;;;;5044060;28;20995;-72
2022/07/30 06:48:17;;;;;;;13.50;7.03;;;19.20;99.90;;;;;;5038185;28;20040;-73
2022/07/30 06:50:42;;;;;;;12.10;8.27;;;19.30;99.90;;;;;;5042476;28;20072;-73
2022/07/30 06:53:08;;;;;;;14.32;7.10;;;19.10;99.90;;;;;;5039717;28;20387;-72
2022/07/30 06:55:34;;;;;;;14.80;7.93;;;19.10;99.90;;;;;;5039879;28;20036;-73
2022/07/30 06:57:59;;;;;;;12.73;6.85;;;19.10;99.90;;;;;;5040227;28;20048;-72
2022/07/30 07:00:26;;;;;;;16.15;7.45;;;19.00;99.90;;;;;;5041091;28;20383;-73
2022/07/30 07:02:52;;;;;;;15.07;7.75;;;18.90;99.90;;;;;;5033338;28;20477;-73
2022/07/30 07:05:19;;;;;;;16.75;7.57;;;18.90;99.90;;;;;;5052474;28;20052;-73
2022/07/30 07:07:45;;;;;;;17.17;7.47;;;18.90;99.90;;;;;;5041129;28;20075;-73
2022/07/30 07:10:10;;;;;;;15.95;7.97;;;19.00;99.90;;;;;;5040628;28;20044;-73
2022/07/30 07:12:36;;;;;;;15.85;7.85;;;19.00;99.90;;;;;;5039300;28;20128;-72
2022/07/30 07:15:02;;;;;;;18.77;7.53;;;19.10;99.90;;;;;;5044730;28;20075;-73
2022/07/30 07:17:28;;;;;;;16.50;7.65;;;19.10;99.90;;;;;;5043685;28;20544;-73
2022/07/30 07:19:53;;;;;;;16.85;7.63;;;19.20;99.90;;;;;;5043688;28;20061;-73
2022/07/30 07:22:19;;;;;;;17.27;6.70;;;19.40;99.90;;;;;;5042011;28;20049;-73
2022/07/30 07:24:45;;;;;;;17.42;6.57;;;19.70;99.90;;;;;;5042538;28;20043;-73
2022/07/30 07:27:10;;;;;;;11.43;6.70;;;19.90;99.90;;;;;;5042744;28;20076;-74
2022/07/30 07:29:36;;;;;;;14.00;6.95;;;20.10;99.90;;;;;;5037749;28;20078;-73
2022/07/30 07:32:02;;;;;;;16.55;6.70;;;20.30;99.90;;;;;;5015661;28;20482;-73
2022/07/30 07:34:28;;;;;;;15.68;6.75;;;20.50;99.90;;;;;;5038094;28;20048;-73
2022/07/30 07:36:53;;;;;;;14.00;7.25;;;20.60;99.90;;;;;;5022483;28;20107;-73
2022/07/30 07:39:19;;;;;;;15.80;6.25;;;20.90;99.90;;;;;;5025792;28;20041;-73
2022/07/30 07:41:45;;;;;;;14.35;6.07;;;21.20;99.90;;;;;;5038745;28;20096;-73
2022/07/30 07:44:11;;;;;;;15.27;6.40;;;21.50;99.90;;;;;;5038016;28;20539;-73
2022/07/30 07:46:36;;;;;;;13.02;6.25;;;21.60;99.90;;;;;;5024070;28;20033;-73
2022/07/30 07:49:02;;;;;;;15.13;5.78;;;21.60;99.90;;;;;;5042023;28;20068;-73
2022/07/30 07:51:28;;;;;;;14.68;5.65;;;21.70;99.90;;;;;;5038780;28;20045;-73
2022/07/30 07:53:54;;;;;;;15.95;6.45;;;21.70;99.90;;;;;;5041981;28;20494;-73
2022/07/30 07:56:19;;;;;;;14.10;4.47;;;21.90;99.90;;;;;;5044915;28;20126;-73
2022/07/30 07:58:46;;;;;;;12.93;4.72;;;22.30;99.90;;;;;;5039902;28;20224;-74
2022/07/30 08:01:12;;;;;;;14.02;4.80;;;22.30;99.90;;;;;;5040290;28;20041;-74
2022/07/30 08:03:38;;;;;;;13.70;4.68;;;22.20;99.90;;;;;;5039706;28;20049;-73
2022/07/30 08:06:04;;;;;;;11.73;4.80;;;22.50;99.90;;;;;;5041094;28;20063;-74
2022/07/30 08:08:29;;;;;;;10.90;4.47;;;22.80;99.90;;;;;;5044385;28;20037;-74
2022/07/30 08:10:55;;;;;;;12.05;4.03;;;23.10;99.90;;;;;;5023909;28;20045;-73
2022/07/30 08:13:22;;;;;;;12.70;4.07;;;23.00;99.90;;;;;;5043198;28;20060;-73
2022/07/30 08:15:49;;;;;;;8.98;3.83;;;23.10;99.90;;;;;;5045818;28;20044;-74
2022/07/30 08:18:14;;;;;;;13.23;4.20;;;23.40;99.90;;;;;;5026974;28;20517;-74
2022/07/30 08:20:40;;;;;;;14.40;3.72;;;24.00;99.90;;;;;;5045123;28;20132;-74
2022/07/30 08:23:06;;;;;;;10.25;3.67;;;24.30;99.90;;;;;;5027864;28;20053;-74
2022/07/30 08:25:32;;;;;;;6.82;3.28;;;24.20;99.90;;;;;;5042677;28;20071;-74
2022/07/30 08:28:01;;;;;;;11.80;3.60;;;24.00;99.90;;;;;;5042522;28;20041;-74
2022/07/30 08:30:27;;;;;;;9.68;3.13;;;24.00;99.90;;;;;;5044129;28;20037;-73
2022/07/30 08:32:52;;;;;;;8.90;3.10;;;24.40;99.90;;;;;;5042676;28;20049;-73
2022/07/30 08:35:19;;;;;;;9.13;2.97;;;24.90;99.90;;;;;;5037414;28;20072;-73
2022/07/30 08:37:45;;;;;;;10.18;2.92;;;25.20;99.90;;;;;;5023991;28;20043;-74
2022/07/30 08:40:11;;;;;;;8.65;3.10;;;25.00;99.90;;;;;;5042298;28;20474;-74
2022/07/30 08:42:37;;;;;;;8.30;2.63;;;24.70;99.90;;;;;;5041328;28;20421;-73
2022/07/30 08:45:03;;;;;;;8.50;2.50;;;24.80;99.90;;;;;;5039765;28;20069;-73
2022/07/30 08:47:33;;;;;;;8.43;2.80;;;25.00;99.90;;;;;;5040019;28;20049;-74
2022/07/30 08:50:03;;;;;;;12.00;2.70;;;25.40;99.90;;;;;;5024186;28;20045;-75
2022/07/30 08:52:34;;;;;;;7.63;2.87;;;25.60;99.90;;;;;;5025605;28;20063;-73
2022/07/30 08:55:00;;;;;;;9.90;2.78;;;25.40;99.90;;;;;;5038366;28;20045;-74
2022/07/30 08:57:31;;;;;;;8.77;3.25;;;25.10;99.90;;;;;;5039273;28;20090;-73
2022/07/30 09:00:00;;;;;;;11.70;3.03;;;25.10;99.90;;;;;;5040249;28;20049;-74
2022/07/30 09:02:29;;;;;;;11.13;2.90;;;25.40;99.90;;;;;;5038481;28;20486;-74
2022/07/30 09:04:55;;;;;;;8.65;2.58;;;25.70;99.90;;;;;;5038410;28;20313;-74
2022/07/30 09:07:20;;;;;;;12.88;2.58;;;26.10;99.90;;;;;;5018476;28;20041;-74
2022/07/30 09:09:46;;;;;;;9.05;3.20;;;26.40;99.90;;;;;;5038542;28;20067;-75
2022/07/30 09:12:30;;;;;;;8.73;3.38;;;26.80;99.90;;;;;;5027089;28;20053;-74
2022/07/30 09:15:07;;;;;;;11.70;3.97;;;26.80;99.90;;;;;;5029928;28;20056;-74
2022/07/30 09:17:52;;;;;;;10.38;2.72;;;26.60;99.90;;;;;;5047601;28;20060;-74
2022/07/30 09:20:28;;;;;;;12.23;2.92;;;26.70;99.90;;;;;;5045065;28;20107;-74
2022/07/30 09:22:57;;;;;;;11.50;2.80;;;26.80;99.90;;;;;;5043868;28;20052;-74
2022/07/30 09:25:36;;;;;;;7.90;2.88;;;27.00;99.90;;;;;;5024799;28;20040;-74
2022/07/30 09:28:02;;;;;;;12.00;2.85;;;27.20;99.90;;;;;;5040191;28;20047;-73
2022/07/30 09:30:45;;;;;;;12.18;3.22;;;27.40;99.90;;;;;;5043949;28;20055;-76
2022/07/30 09:33:11;;;;;;;9.90;2.72;;;27.60;99.90;;;;;;5025462;28;20053;-74
2022/07/30 09:35:37;;;;;;;11.25;2.88;;;27.80;99.90;;;;;;5045381;28;20124;-75
2022/07/30 09:38:03;;;;;;;7.50;2.40;;;27.90;99.90;;;;;;5023401;28;20471;-75
2022/07/30 09:40:29;;;;;;;7.25;2.42;;;28.00;99.90;;;;;;5026572;28;20037;-75
2022/07/30 09:43:03;;;;;;;11.50;3.08;;;28.10;99.90;;;;;;5043458;28;20049;-73
2022/07/30 09:45:30;;;;;;;9.93;2.60;;;28.10;99.90;;;;;;5042811;28;20047;-75
2022/07/30 09:47:56;;;;;;;14.18;2.55;;;27.80;99.90;;;;;;5043181;28;20056;-75
2022/07/30 09:50:25;;;;;;;6.85;2.13;;;27.50;99.90;;;;;;5036509;28;21630;-76
2022/07/30 09:52:52;;;;;;;12.93;2.97;;;27.50;99.90;;;;;;5023112;28;20112;-75
2022/07/30 09:55:32;;;;;;;7.72;2.60;;;27.60;99.90;;;;;;5043203;28;20318;-75
2022/07/30 09:58:00;;;;;;;8.85;2.30;;;27.80;99.90;;;;;;5055691;28;20068;-75
2022/07/30 10:00:28;;;;;;;11.77;2.70;;;27.70;99.90;;;;;;5042001;28;20076;-74
2022/07/30 10:02:54;;;;;;;10.52;2.40;;;27.70;99.90;;;;;;5027757;28;20079;-74
2022/07/30 10:05:20;;;;;;;8.10;2.47;;;27.80;99.90;;;;;;5024521;28;20048;-75
2022/07/30 10:07:47;;;;;;;10.10;3.10;;;27.60;99.90;;;;;;5042396;28;20049;-74
2022/07/30 10:10:13;;;;;;;9.60;2.53;;;27.20;99.90;;;;;;5039055;28;20043;-74
2022/07/30 10:12:39;;;;;;;7.57;2.25;;;26.90;99.90;;;;;;5037507;28;20045;-74
2022/07/30 10:15:06;;;;;;;8.00;2.90;;;27.10;99.90;;;;;;5044949;28;20083;-74
2022/07/30 10:17:33;;;;;;;9.00;2.47;;;27.30;99.90;;;;;;5043719;28;20049;-74
2022/07/30 10:19:59;;;;;;;8.82;2.33;;;27.60;99.90;;;;;;5043286;28;20463;-75
2022/07/30 10:22:26;;;;;;;8.63;2.63;;;27.90;99.90;;;;;;5044581;28;20333;-75
2022/07/30 10:24:52;;;;;;;11.52;2.30;;;27.90;99.90;;;;;;5040611;28;20402;-75
2022/07/30 10:27:19;;;;;;;6.25;2.28;;;27.90;99.90;;;;;;5043954;28;20040;-75
2022/07/30 10:29:46;;;;;;;6.55;1.90;;;27.80;99.90;;;;;;5045955;28;20561;-75
2022/07/30 10:32:12;;;;;;;7.13;2.22;;;27.90;99.90;;;;;;5041455;28;20037;-74
2022/07/30 10:34:39;;;;;;;6.40;1.83;;;27.90;99.90;;;;;;5027632;28;20165;-75
2022/07/30 10:37:06;;;;;;;9.95;2.53;;;27.70;99.90;;;;;;5042754;28;20134;-75
2022/07/30 10:39:38;;;;;;;9.05;3.25;;;27.50;99.90;;;;;;5025332;28;20151;-75
2022/07/30 10:42:45;;;;;;;8.63;2.55;;;27.60;99.90;;;;;;5039354;28;20056;-76
2022/07/30 10:45:21;;;;;;;11.25;2.30;;;27.60;99.90;;;;;;5043021;28;20056;-74
2022/07/30 10:47:49;;;;;;;6.80;2.00;;;27.40;99.90;;;;;;5045130;28;20049;-75
2022/07/30 10:50:25;;;;;;;7.20;2.58;;;26.90;99.90;;;;;;5043037;28;21430;-75
2022/07/30 10:52:55;;;;;;;6.93;1.90;;;26.60;99.90;;;;;;5019876;28;20087;-75
2022/07/30 10:55:29;;;;;;;8.60;2.17;;;26.60;99.90;;;;;;5043235;28;20608;-75
2022/07/30 10:58:05;;;;;;;7.22;2.10;;;27.00;99.90;;;;;;5052286;28;20495;-76
2022/07/30 11:00:55;;;;;;;6.88;2.15;;;27.40;99.90;;;;;;5024305;28;20033;-75
2022/07/30 11:03:29;;;;;;;5.90;2.30;;;27.60;99.90;;;;;;5035476;28;20127;-75
2022/07/30 11:06:13;;;;;;;7.00;1.70;;;27.80;99.70;;;;;;5029180;28;20100;-75
2022/07/30 11:08:41;;;;;;;9.07;2.00;;;28.00;99.30;;;;;;5019072;28;20044;-76
2022/07/30 11:11:22;;;;;;;8.07;1.67;;;28.00;99.20;;;;;;5040762;28;20115;-75
2022/07/30 11:13:57;;;;;;;6.75;2.03;;;28.20;97.90;;;;;;5031410;28;20041;-76
2022/07/30 11:16:32;;;;;;;6.07;1.90;;;28.40;98.50;;;;;;5015024;28;20421;-75
2022/07/30 11:19:23;;;;;;;9.60;2.20;;;28.10;97.60;;;;;;5024041;28;20048;-74
2022/07/30 11:22:21;;;;;;;9.23;2.03;;;27.60;97.70;;;;;;5034560;28;20254;-76
2022/07/30 11:24:47;;;;;;;5.22;2.03;;;27.40;97.60;;;;;;5049887;28;20049;-76
2022/07/30 11:27:38;;;;;;;5.72;1.77;;;27.60;98.80;;;;;;5040883;28;20033;-75
2022/07/30 11:30:06;;;;;;;;;;;28.00;97.30;;;;;;5039339;28;20546;-76
2022/07/30 11:32:33;;;;;;;6.55;2.28;;;28.20;98.00;;;;;;5037695;28;19924;-75
2022/07/30 11:35:27;;;;;;;9.18;2.00;;;28.20;97.50;;;;;;5021960;28;20048;-76
2022/07/30 11:38:03;;;;;;;7.63;2.17;;;28.10;97.40;;;;;;5021805;28;20549;-75
2022/07/30 11:41:01;;;;;;;7.65;1.95;;;27.70;97.10;;;;;;5037365;28;20108;-75
2022/07/30 11:43:35;;;;;;;6.60;1.80;;;27.30;96.80;;;;;;5035298;28;20676;-76
2022/07/30 11:46:21;;;;;;;7.55;1.90;;;27.10;96.50;;;;;;5038328;28;20465;-75
2022/07/30 11:48:59;;;;;;;6.18;2.10;;;27.20;96.90;;;;;;5039081;28;20048;-75
2022/07/30 11:51:38;;;;;;;4.82;1.50;;;27.40;96.80;;;;;;5020542;28;20413;-80
2022/07/30 11:54:05;;;;;;;9.05;1.92;;;27.50;96.60;;;;;;5023194;28;20553;-74
2022/07/30 11:56:34;;;;;;;8.43;2.00;;;27.60;96.30;;;;;;5039241;28;20382;-77
2022/07/30 11:59:07;;;;;;;5.65;1.70;;;27.60;96.30;;;;;;5039189;28;20561;-75
2022/07/30 12:01:34;;;;;;;7.00;1.70;;;27.50;96.50;;;;;;5037290;28;20106;-73
2022/07/30 12:04:05;;;;;;;9.23;1.88;;;27.50;96.90;;;;;;5036014;28;20216;-75
2022/07/30 12:06:31;;;;;;;10.73;1.95;;;27.30;95.70;;;;;;5037450;28;20060;-72
2022/07/30 12:08:58;;;;;;;9.90;2.40;;;27.20;96.70;;;;;;5023584;28;20071;-72
2022/07/30 12:11:30;;;;;;;7.53;2.08;;;27.10;96.60;;;;;;5040489;28;20501;-73
2022/07/30 12:13:58;;;;;;;8.10;2.25;;;27.20;97.00;;;;;;5022223;28;20056;-77
2022/07/30 12:16:28;;;;;;;5.13;1.50;;;27.20;95.60;;;;;;5037985;28;20052;-74
2022/07/30 12:18:54;;;;;;;5.13;1.60;;;27.10;95.60;;;;;;5037447;28;21516;-75
2022/07/30 12:21:20;;;;;;;5.80;1.63;;;27.00;94.60;;;;;;5026249;28;20452;-75
2022/07/30 12:24:02;;;;;;;5.97;1.30;;;27.10;94.80;;;;;;5039346;28;20731;-76
2022/07/30 12:26:33;;;;;;;6.63;1.65;;;27.10;95.50;;;;;;5024427;28;20110;-76
2022/07/30 12:29:12;;;;;;;9.95;2.22;;;27.10;95.80;;;;;;5022910;28;20463;-76
2022/07/30 12:31:39;;;;;;;6.78;1.80;;;27.20;96.20;;;;;;5038284;28;20072;-76
2022/07/30 12:34:18;;;;;;;4.80;1.63;;;27.30;96.50;;;;;;5038122;28;20115;-75
2022/07/30 12:36:44;;;;;;;5.55;1.60;;;27.30;95.00;;;;;;5033995;28;20582;-75
2022/07/30 12:39:21;;;;;;;7.95;1.70;;;27.30;96.50;;;;;;5049861;28;20041;-75
2022/07/30 12:41:49;;;;;;;8.43;1.58;;;27.30;95.90;;;;;;5038651;28;20049;-75
2022/07/30 12:44:38;;;;;;;8.70;1.48;;;27.30;95.70;;;;;;5036783;28;20033;-75
2022/07/30 12:47:16;;;;;;;6.47;1.75;;;27.30;96.10;;;;;;5052647;28;20538;-75
2022/07/30 12:49:41;;;;;;;5.47;1.50;;;27.30;95.50;;;;;;5025217;28;20052;-75
2022/07/30 12:52:07;;;;;;;7.88;1.77;;;27.40;95.80;;;;;;5042797;28;20040;-75